createdAt,value
2023-09-08T00:01:08.809Z,5.38
2023-09-08T00:03:42.066Z,5.85
2023-09-08T00:06:12.626Z,4.85
2023-09-08T00:08:42.795Z,6.55
2023-09-08T00:11:13.293Z,5.57
2023-09-08T00:13:44.000Z,4.22
2023-09-08T00:16:14.465Z,5.15
2023-09-08T00:18:45.116Z,4.70
2023-09-08T00:21:15.648Z,6.15
2023-09-08T00:23:45.719Z,6.38
2023-09-08T00:26:16.449Z,5.28
2023-09-08T00:28:47.128Z,3.63
2023-09-08T00:31:17.935Z,4.53
2023-09-08T00:33:48.890Z,5.40
2023-09-08T00:36:21.388Z,4.30
2023-09-08T00:38:51.938Z,6.07
2023-09-08T00:41:22.530Z,5.20
2023-09-08T00:43:53.634Z,4.20
2023-09-08T00:46:24.906Z,4.85
2023-09-08T00:48:54.970Z,4.55
2023-09-08T00:51:25.487Z,5.68
2023-09-08T00:53:56.367Z,4.18
2023-09-08T00:56:27.103Z,4.03
2023-09-08T00:58:57.643Z,5.40
2023-09-08T01:01:27.670Z,5.43
2023-09-08T01:03:58.458Z,7.28
2023-09-08T01:06:29.104Z,4.80
2023-09-08T01:08:59.722Z,3.17
2023-09-08T01:11:30.110Z,5.45
2023-09-08T01:14:00.610Z,4.15
2023-09-08T01:16:30.762Z,4.45
2023-09-08T01:19:02.328Z,5.00
2023-09-08T01:22:03.454Z,5.40
2023-09-08T01:24:51.096Z,4.88
2023-09-08T01:27:24.006Z,6.72
2023-09-08T01:29:56.650Z,6.38
2023-09-08T01:32:27.535Z,4.72
2023-09-08T01:35:00.473Z,4.68
2023-09-08T01:37:30.653Z,5.30
2023-09-08T01:40:01.129Z,6.00
2023-09-08T01:42:31.010Z,6.63
2023-09-08T01:45:01.415Z,4.70
2023-09-08T01:47:33.101Z,4.50
2023-09-08T01:50:04.214Z,4.45
2023-09-08T01:52:34.238Z,8.00
2023-09-08T01:55:05.287Z,7.55
2023-09-08T01:57:35.338Z,5.28
2023-09-08T02:00:06.299Z,6.63
2023-09-08T02:02:42.188Z,8.13
2023-09-08T02:05:12.784Z,5.20
2023-09-08T02:07:43.045Z,6.93
2023-09-08T02:10:16.607Z,6.70
2023-09-08T02:12:46.737Z,7.07
2023-09-08T02:15:18.295Z,8.23
2023-09-08T02:17:48.440Z,5.00
2023-09-08T02:20:19.026Z,6.78
2023-09-08T02:22:52.572Z,6.70
2023-09-08T02:25:23.395Z,6.40
2023-09-08T02:27:54.118Z,8.85
2023-09-08T02:30:25.422Z,7.47
2023-09-08T02:32:57.594Z,7.30
2023-09-08T02:35:28.703Z,9.02
2023-09-08T02:38:06.980Z,7.03
2023-09-08T02:40:38.112Z,8.32
2023-09-08T02:43:09.755Z,7.78
2023-09-08T02:45:40.722Z,7.45
2023-09-08T02:48:10.897Z,9.32
2023-09-08T02:50:41.780Z,10.20
2023-09-08T02:53:12.107Z,10.25
2023-09-08T02:55:42.771Z,9.07
2023-09-08T02:58:13.046Z,9.50
2023-09-08T03:00:45.970Z,9.40
2023-09-08T03:03:17.508Z,8.23
2023-09-08T03:05:48.671Z,8.90
2023-09-08T03:08:19.162Z,9.48
2023-09-08T03:10:50.599Z,11.00
2023-09-08T03:13:23.853Z,9.65
2023-09-08T03:15:55.123Z,11.55
2023-09-08T03:18:25.517Z,13.05
2023-09-08T03:20:58.233Z,9.95
2023-09-08T03:26:07.007Z,9.50
2023-09-08T03:28:39.516Z,10.15
2023-09-08T03:31:09.834Z,11.30
2023-09-08T03:33:48.032Z,15.63
2023-09-08T03:36:27.433Z,12.50
2023-09-08T03:39:05.846Z,12.13
2023-09-08T03:41:43.485Z,12.38
2023-09-08T03:44:14.266Z,12.75
2023-09-08T03:46:45.280Z,10.85
2023-09-08T03:49:16.025Z,13.73
2023-09-08T03:51:46.271Z,9.73
2023-09-08T03:54:17.364Z,10.35
2023-09-08T03:56:47.645Z,11.82
2023-09-08T03:59:18.289Z,10.00
2023-09-08T04:01:48.568Z,10.43
2023-09-08T04:04:20.221Z,11.50
2023-09-08T04:06:54.053Z,9.20
2023-09-08T04:09:27.331Z,10.05
2023-09-08T04:12:03.295Z,10.40
2023-09-08T04:14:36.174Z,10.57
2023-09-08T04:17:06.645Z,8.90
2023-09-08T04:19:38.403Z,10.88
2023-09-08T04:22:08.797Z,14.05
2023-09-08T04:24:40.440Z,18.90
2023-09-08T04:27:15.632Z,14.95
2023-09-08T04:29:46.592Z,15.75
2023-09-08T04:32:19.585Z,16.00
2023-09-08T04:34:51.369Z,14.98
2023-09-08T04:37:21.778Z,13.43
2023-09-08T04:39:52.469Z,12.80
2023-09-08T04:42:22.710Z,15.30
2023-09-08T04:44:59.673Z,11.52
2023-09-08T04:47:32.455Z,11.10
2023-09-08T04:50:03.079Z,10.55
2023-09-08T04:52:33.477Z,11.02
2023-09-08T04:55:05.594Z,13.38
2023-09-08T04:57:35.617Z,11.30
2023-09-08T05:00:06.017Z,10.95
2023-09-08T05:02:36.342Z,12.32
2023-09-08T05:05:08.172Z,9.60
2023-09-08T05:07:42.448Z,9.68
2023-09-08T05:10:15.459Z,9.23
2023-09-08T05:12:46.046Z,9.05
2023-09-08T05:15:18.002Z,8.57
2023-09-08T05:17:51.727Z,8.30
2023-09-08T05:20:23.362Z,5.82
2023-09-08T05:22:54.872Z,6.28
2023-09-08T05:25:25.885Z,7.07
2023-09-08T05:27:56.396Z,8.13
2023-09-08T05:30:30.423Z,10.63
2023-09-08T05:33:01.415Z,9.05
2023-09-08T05:35:37.951Z,8.10
2023-09-08T05:38:18.764Z,8.05
2023-09-08T05:40:48.928Z,8.88
2023-09-08T05:43:22.251Z,8.07
2023-09-08T05:45:59.054Z,14.02
2023-09-08T05:48:30.617Z,7.70
2023-09-08T05:51:10.954Z,11.77
2023-09-08T05:53:43.033Z,9.07
2023-09-08T05:56:17.755Z,9.15
2023-09-08T05:58:54.867Z,9.98
2023-09-08T06:01:26.680Z,10.13
2023-09-08T06:03:57.675Z,11.27
2023-09-08T06:06:34.014Z,10.75
2023-09-08T06:09:10.924Z,10.77
2023-09-08T06:11:41.298Z,14.90
2023-09-08T06:14:14.760Z,7.97
2023-09-08T06:17:13.275Z,8.52
2023-09-08T06:19:44.646Z,6.13
2023-09-08T06:22:19.435Z,6.60
2023-09-08T06:24:50.709Z,5.10
2023-09-08T06:27:24.873Z,5.55
2023-09-08T06:29:58.064Z,6.57
2023-09-08T06:32:28.645Z,6.95
2023-09-08T06:35:04.478Z,5.03
2023-09-08T06:37:39.734Z,7.20
2023-09-08T06:40:14.568Z,4.63
2023-09-08T06:42:45.090Z,5.30
2023-09-08T06:45:29.542Z,6.72
2023-09-08T06:48:02.701Z,26.25
2023-09-08T06:50:37.777Z,7.50
2023-09-08T06:53:08.163Z,5.72
2023-09-08T06:55:38.859Z,4.22
2023-09-08T06:58:09.694Z,3.83
2023-09-08T07:00:40.954Z,3.70
2023-09-08T07:03:11.901Z,6.07
2023-09-08T07:05:42.941Z,5.45
2023-09-08T07:08:14.216Z,4.25
2023-09-08T07:10:45.680Z,2.42
2023-09-08T07:13:15.806Z,3.70
2023-09-08T07:15:46.334Z,3.10
2023-09-08T07:18:16.606Z,1.50
2023-09-08T07:20:53.835Z,2.55
2023-09-08T07:23:24.684Z,4.07
2023-09-08T07:25:55.745Z,3.08
2023-09-08T07:28:29.521Z,3.45
2023-09-08T07:31:07.443Z,5.50
2023-09-08T07:33:40.876Z,4.13
2023-09-08T07:36:12.279Z,3.75
2023-09-08T07:38:43.584Z,4.93
2023-09-08T07:41:14.855Z,5.63
2023-09-08T07:43:47.180Z,4.20
2023-09-08T07:46:21.562Z,4.28
2023-09-08T07:48:55.289Z,2.53
2023-09-08T07:51:25.828Z,2.88
2023-09-08T07:53:58.720Z,2.33
2023-09-08T07:56:29.288Z,2.67
2023-09-08T07:58:59.877Z,2.10
2023-09-08T08:01:30.750Z,1.65
2023-09-08T08:04:01.218Z,2.53
2023-09-08T08:06:32.904Z,1.98
2023-09-08T08:09:03.490Z,1.92
2023-09-08T08:11:34.331Z,3.08
2023-09-08T08:14:04.838Z,2.38
2023-09-08T08:16:35.899Z,1.70
2023-09-08T08:19:09.283Z,2.58
2023-09-08T08:21:44.584Z,3.65
2023-09-08T08:24:14.661Z,1.48
2023-09-08T08:26:45.112Z,2.38
2023-09-08T08:29:15.352Z,3.53
2023-09-08T08:31:45.985Z,2.63
2023-09-08T08:34:16.889Z,2.78
2023-09-08T08:36:47.497Z,2.90
2023-09-08T08:39:18.296Z,4.53
2023-09-08T08:41:48.965Z,5.22
2023-09-08T08:44:24.069Z,2.58
2023-09-08T08:46:56.974Z,2.53
2023-09-08T08:49:27.538Z,2.15
2023-09-08T08:52:00.548Z,2.70
2023-09-08T08:57:06.386Z,3.47
2023-09-08T08:59:38.276Z,3.03
2023-09-08T09:02:10.800Z,2.75
2023-09-08T09:04:44.887Z,2.80
2023-09-08T09:07:23.924Z,4.90
2023-09-08T09:09:55.313Z,3.88
2023-09-08T09:12:29.434Z,4.47
2023-09-08T09:15:02.586Z,4.82
2023-09-08T09:17:41.929Z,6.97
2023-09-08T09:20:20.123Z,3.75
2023-09-08T09:22:53.689Z,3.72
2023-09-08T09:25:29.689Z,4.97
2023-09-08T09:28:02.356Z,8.18
2023-09-08T09:30:50.832Z,2.85
2023-09-08T09:33:21.640Z,2.55
2023-09-08T09:35:55.789Z,5.07
2023-09-08T09:38:31.208Z,4.15
2023-09-08T09:41:02.132Z,2.78
2023-09-08T09:43:33.493Z,5.35
2023-09-08T09:46:04.876Z,4.55
2023-09-08T09:48:36.062Z,4.28
2023-09-08T09:51:25.991Z,3.53
2023-09-08T09:53:58.080Z,5.53
2023-09-08T09:56:29.397Z,2.92
2023-09-08T09:59:00.727Z,2.10
2023-09-08T10:01:32.603Z,3.67
2023-09-08T10:06:38.328Z,1.95
2023-09-08T10:09:27.881Z,3.17
2023-09-08T10:12:05.669Z,3.65
2023-09-08T10:14:38.946Z,3.75
2023-09-08T10:17:23.248Z,3.63
2023-09-08T10:19:56.767Z,4.20
2023-09-08T10:22:32.512Z,2.63
2023-09-08T10:25:08.619Z,3.85
2023-09-08T10:27:40.186Z,3.72
2023-09-08T10:30:12.148Z,2.55
2023-09-08T10:32:43.886Z,3.83
2023-09-08T10:35:14.561Z,2.90
2023-09-08T10:37:44.689Z,3.80
2023-09-08T10:40:25.258Z,3.17
2023-09-08T10:43:14.078Z,4.18
2023-09-08T10:45:44.042Z,5.78
2023-09-08T10:48:15.537Z,3.83
2023-09-08T10:50:45.995Z,6.78
2023-09-08T10:53:20.649Z,6.47
2023-09-08T10:58:39.370Z,4.03
2023-09-08T11:01:09.920Z,4.20
2023-09-08T11:03:40.561Z,4.45
2023-09-08T11:06:14.388Z,6.60
2023-09-08T11:08:46.479Z,5.90
2023-09-08T11:11:18.691Z,4.20
2023-09-08T11:13:49.220Z,4.25
2023-09-08T11:16:23.779Z,4.82
2023-09-08T11:18:54.768Z,5.90
2023-09-08T11:21:24.856Z,6.63
2023-09-08T11:23:55.514Z,5.72
2023-09-08T11:26:26.627Z,6.20
2023-09-08T11:28:57.314Z,6.82
2023-09-08T11:31:27.353Z,6.03
2023-09-08T11:33:58.562Z,6.03
2023-09-08T11:36:28.763Z,10.27
2023-09-08T11:38:59.445Z,5.00
2023-09-08T11:41:31.099Z,5.63
2023-09-08T11:44:01.759Z,5.93
2023-09-08T11:46:32.602Z,4.78
2023-09-08T11:49:03.318Z,6.07
2023-09-08T11:51:33.526Z,6.53
2023-09-08T11:54:04.526Z,4.65
2023-09-08T11:56:36.077Z,4.40
2023-09-08T11:59:07.224Z,5.05
2023-09-08T12:01:38.358Z,7.25
2023-09-08T12:04:08.960Z,4.22
2023-09-08T12:06:39.063Z,6.43
2023-09-08T12:09:10.571Z,4.97
2023-09-08T12:11:44.815Z,6.05
2023-09-08T12:14:16.644Z,4.88
2023-09-08T12:16:46.940Z,5.50
2023-09-08T12:19:33.635Z,8.35
2023-09-08T12:22:05.362Z,4.20
2023-09-08T12:25:11.280Z,6.05
2023-09-08T12:30:12.034Z,7.40
2023-09-08T12:32:42.109Z,6.10
2023-09-08T12:35:12.491Z,4.05
2023-09-08T12:37:42.508Z,5.90
2023-09-08T12:40:13.495Z,5.82
2023-09-08T12:42:45.481Z,5.38
2023-09-08T12:45:19.299Z,5.20
2023-09-08T12:47:49.355Z,8.00
2023-09-08T12:50:20.469Z,5.25
2023-09-08T12:52:51.490Z,6.13
2023-09-08T12:55:22.238Z,8.27
2023-09-08T12:57:56.872Z,4.13
2023-09-08T13:00:27.702Z,4.22
2023-09-08T13:02:58.278Z,5.28
2023-09-08T13:05:29.612Z,5.32
2023-09-08T13:07:59.700Z,4.82
2023-09-08T13:10:30.381Z,4.90
2023-09-08T13:13:00.636Z,5.07
2023-09-08T13:15:31.166Z,4.28
2023-09-08T13:18:01.178Z,4.13
2023-09-08T13:20:31.929Z,5.75
2023-09-08T13:23:02.011Z,15.10
2023-09-08T13:25:32.487Z,5.90
2023-09-08T13:28:02.614Z,5.18
2023-09-08T13:30:33.073Z,5.25
2023-09-08T13:33:03.307Z,7.45
2023-09-08T13:35:33.861Z,6.22
2023-09-08T13:38:05.366Z,5.03
2023-09-08T13:40:35.920Z,4.30
2023-09-08T13:43:06.201Z,7.50
2023-09-08T13:45:36.648Z,5.47
2023-09-08T13:48:08.608Z,4.75
2023-09-08T13:50:44.180Z,4.68
2023-09-08T13:53:15.259Z,6.75
2023-09-08T13:55:50.234Z,7.70
2023-09-08T13:58:21.331Z,8.07
2023-09-08T14:00:54.009Z,8.35
2023-09-08T14:03:29.430Z,7.30
2023-09-08T14:06:03.092Z,7.75
2023-09-08T14:11:14.977Z,7.20
2023-09-08T14:13:50.613Z,7.05
2023-09-08T14:16:21.716Z,7.70
2023-09-08T14:18:51.861Z,6.38
2023-09-08T14:21:22.265Z,8.63
2023-09-08T14:23:52.178Z,9.60
2023-09-08T14:26:22.867Z,7.57
2023-09-08T14:28:52.769Z,6.65
2023-09-08T14:31:22.855Z,7.45
2023-09-08T14:33:52.903Z,6.57
2023-09-08T14:36:23.009Z,7.00
2023-09-08T14:38:53.089Z,6.40
2023-09-08T14:41:22.944Z,6.82
2023-09-08T14:43:53.428Z,9.23
2023-09-08T14:46:23.437Z,7.22
2023-09-08T14:48:53.900Z,6.32
2023-09-08T14:51:23.994Z,7.70
2023-09-08T14:53:54.473Z,8.02
2023-09-08T14:56:24.580Z,8.63
2023-09-08T14:58:55.000Z,8.77
2023-09-08T15:01:25.072Z,9.75
2023-09-08T15:03:57.364Z,10.73
2023-09-08T15:06:28.673Z,10.98
2023-09-08T15:08:59.285Z,12.07
2023-09-08T15:11:29.283Z,10.88
2023-09-08T15:13:59.993Z,10.27
2023-09-08T15:16:30.531Z,8.18
2023-09-08T15:19:01.426Z,8.68
2023-09-08T15:21:32.901Z,7.97
2023-09-08T15:24:04.367Z,10.32
2023-09-08T15:26:34.772Z,8.25
2023-09-08T15:29:06.806Z,9.35
2023-09-08T15:31:37.213Z,6.47
2023-09-08T15:34:10.142Z,10.52
2023-09-08T15:36:40.466Z,8.27
2023-09-08T15:39:11.359Z,7.88
2023-09-08T15:41:41.751Z,10.95
2023-09-08T15:44:12.760Z,8.05
2023-09-08T15:46:43.529Z,10.20
2023-09-08T15:49:14.700Z,7.57
2023-09-08T15:51:45.387Z,10.15
2023-09-08T15:54:18.633Z,8.68
2023-09-08T15:56:49.013Z,8.02
2023-09-08T15:59:19.722Z,8.23
2023-09-08T16:01:50.206Z,9.55
2023-09-08T16:04:21.141Z,8.85
2023-09-08T16:06:52.416Z,8.32
2023-09-08T16:09:23.224Z,7.60
2023-09-08T16:11:53.615Z,7.30
2023-09-08T16:14:24.670Z,6.90
2023-09-08T16:16:55.132Z,8.77
2023-09-08T16:19:26.019Z,7.15
2023-09-08T16:21:56.333Z,6.85
2023-09-08T16:24:27.156Z,8.88
2023-09-08T16:27:00.146Z,7.75
2023-09-08T16:29:32.533Z,6.93
2023-09-08T16:32:02.862Z,8.15
2023-09-08T16:34:33.741Z,8.55
2023-09-08T16:37:04.657Z,8.13
2023-09-08T16:39:35.645Z,7.22
2023-09-08T16:42:06.534Z,9.10
2023-09-08T16:44:37.675Z,8.48
2023-09-08T16:47:08.048Z,7.10
2023-09-08T16:49:39.034Z,6.35
2023-09-08T16:52:09.725Z,7.25
2023-09-08T16:54:40.467Z,8.32
2023-09-08T16:57:10.865Z,7.35
2023-09-08T16:59:41.951Z,9.45
2023-09-08T17:02:12.375Z,7.43
2023-09-08T17:04:48.116Z,8.95
2023-09-08T17:07:18.539Z,10.13
2023-09-08T17:09:49.498Z,7.10
2023-09-08T17:12:19.933Z,7.63
2023-09-08T17:14:50.934Z,7.97
2023-09-08T17:17:21.305Z,6.82
2023-09-08T17:19:52.180Z,6.38
2023-09-08T17:22:22.568Z,8.38
2023-09-08T17:24:54.027Z,7.53
2023-09-08T17:27:24.361Z,7.32
2023-09-08T17:29:55.465Z,8.45
2023-09-08T17:32:25.795Z,7.95
2023-09-08T17:34:56.752Z,7.95
2023-09-08T17:37:27.076Z,8.48
2023-09-08T17:39:57.920Z,9.02
2023-09-08T17:42:28.389Z,7.88
2023-09-08T17:44:59.479Z,9.55
2023-09-08T17:47:29.893Z,7.18
2023-09-08T17:50:00.961Z,8.88
2023-09-08T17:52:31.855Z,8.80
2023-09-08T17:55:05.951Z,7.85
2023-09-08T17:57:37.653Z,10.50
2023-09-08T18:00:09.630Z,10.05
2023-09-08T18:02:40.098Z,8.90
2023-09-08T18:05:11.218Z,7.15
2023-09-08T18:07:41.786Z,9.00
2023-09-08T18:10:15.538Z,8.75
2023-09-08T18:12:45.987Z,7.10
2023-09-08T18:15:17.296Z,7.82
2023-09-08T18:17:49.710Z,8.00
2023-09-08T18:20:21.203Z,6.70
2023-09-08T18:22:54.148Z,6.28
2023-09-08T18:25:25.358Z,7.47
2023-09-08T18:27:55.940Z,7.63
2023-09-08T18:30:26.727Z,8.73
2023-09-08T18:32:57.149Z,6.85
2023-09-08T18:35:28.865Z,9.13
2023-09-08T18:37:59.214Z,7.70
2023-09-08T18:40:30.061Z,6.70
2023-09-08T18:43:00.448Z,7.07
2023-09-08T18:45:31.563Z,7.07
2023-09-08T18:48:02.035Z,7.60
2023-09-08T18:50:32.988Z,8.45
2023-09-08T18:53:03.504Z,6.88
2023-09-08T18:55:36.274Z,6.00
2023-09-08T18:58:07.773Z,8.10
2023-09-08T19:03:08.826Z,7.57
2023-09-08T19:05:42.117Z,5.63
2023-09-08T19:08:12.985Z,6.90
2023-09-08T19:10:43.762Z,6.05
2023-09-08T19:13:14.222Z,7.25
2023-09-08T19:15:45.138Z,6.47
2023-09-08T19:18:15.583Z,6.68
2023-09-08T19:20:47.214Z,7.30
2023-09-08T19:23:17.565Z,6.35
2023-09-08T19:25:48.683Z,6.32
2023-09-08T19:28:19.085Z,7.70
2023-09-08T19:30:52.800Z,7.50
2023-09-08T19:33:23.330Z,5.40
2023-09-08T19:35:54.575Z,6.65
2023-09-08T19:38:25.041Z,7.53
2023-09-08T19:41:06.254Z,7.65
2023-09-08T19:43:36.920Z,8.18
2023-09-08T19:46:08.678Z,7.50
2023-09-08T19:48:40.104Z,9.05
2023-09-08T19:51:11.899Z,10.13
2023-09-08T19:53:42.295Z,7.50
2023-09-08T19:56:13.248Z,9.20
2023-09-08T19:58:44.833Z,6.93
2023-09-08T20:01:16.227Z,8.68
2023-09-08T20:03:46.947Z,8.88
2023-09-08T20:06:19.325Z,6.70
2023-09-08T20:08:49.747Z,6.43
2023-09-08T20:11:20.971Z,7.38
2023-09-08T20:13:51.375Z,9.25
2023-09-08T20:16:22.941Z,9.60
2023-09-08T20:18:53.536Z,12.18
2023-09-08T20:21:24.525Z,11.45
2023-09-08T20:23:55.162Z,8.75
2023-09-08T20:26:26.441Z,7.28
2023-09-08T20:28:57.249Z,9.48
2023-09-08T20:31:28.185Z,9.68
2023-09-08T20:33:58.515Z,8.60
2023-09-08T20:36:29.306Z,8.10
2023-09-08T20:38:59.764Z,8.43
2023-09-08T20:41:30.733Z,8.65
2023-09-08T20:44:01.150Z,8.50
2023-09-08T20:46:32.276Z,9.98
2023-09-08T20:49:02.756Z,8.27
2023-09-08T20:51:34.754Z,7.93
2023-09-08T20:54:05.901Z,9.73
2023-09-08T20:56:36.664Z,9.73
2023-09-08T20:59:07.152Z,7.40
2023-09-08T21:01:38.283Z,11.65
2023-09-08T21:04:09.868Z,7.95
2023-09-08T21:06:40.860Z,7.38
2023-09-08T21:09:11.268Z,8.48
2023-09-08T21:11:42.045Z,7.68
2023-09-08T21:14:12.349Z,9.80
2023-09-08T21:16:43.339Z,9.52
2023-09-08T21:19:13.687Z,10.00
2023-09-08T21:21:44.512Z,8.88
2023-09-08T21:24:14.813Z,8.05
2023-09-08T21:26:45.734Z,9.35
2023-09-08T21:29:16.394Z,9.55
2023-09-08T21:31:51.012Z,8.38
2023-09-08T21:34:23.378Z,9.90
2023-09-08T21:36:54.325Z,8.38
2023-09-08T21:39:24.923Z,7.82
2023-09-08T21:41:56.580Z,8.75
2023-09-08T21:44:26.926Z,12.38
2023-09-08T21:46:58.546Z,10.20
2023-09-08T21:49:29.176Z,10.32
2023-09-08T21:52:03.404Z,9.75
2023-09-08T21:54:33.807Z,8.77
2023-09-08T21:57:05.871Z,9.50
2023-09-08T21:59:36.639Z,11.75
2023-09-08T22:02:08.330Z,8.63
2023-09-08T22:04:39.551Z,11.60
2023-09-08T22:07:10.932Z,10.57
2023-09-08T22:09:41.809Z,10.93
2023-09-08T22:12:12.601Z,10.98
2023-09-08T22:14:42.953Z,11.25
2023-09-08T22:17:13.933Z,12.60
2023-09-08T22:19:44.186Z,11.90
2023-09-08T22:22:15.050Z,14.10
2023-09-08T22:24:45.458Z,12.30
2023-09-08T22:27:17.000Z,11.98
2023-09-08T22:29:47.427Z,12.75
2023-09-08T22:32:18.164Z,13.77
2023-09-08T22:34:48.546Z,13.40
2023-09-08T22:37:19.306Z,15.48
2023-09-08T22:39:49.674Z,17.35
2023-09-08T22:42:22.905Z,17.35
2023-09-08T22:44:54.445Z,16.60
2023-09-08T22:47:26.178Z,16.60
2023-09-08T22:50:14.243Z,16.63
2023-09-08T22:52:44.812Z,14.57
2023-09-08T22:55:25.043Z,15.90
2023-09-08T22:57:56.974Z,16.10
2023-09-08T23:00:27.789Z,16.92
2023-09-08T23:02:58.589Z,18.60
2023-09-08T23:05:29.410Z,21.35
2023-09-08T23:07:59.882Z,18.58
2023-09-08T23:10:30.714Z,23.15
2023-09-08T23:13:01.162Z,27.63
2023-09-08T23:15:32.058Z,23.10
2023-09-08T23:18:02.700Z,31.92
2023-09-08T23:20:33.530Z,27.77
2023-09-08T23:23:03.913Z,26.02
2023-09-08T23:25:34.820Z,24.02
2023-09-08T23:28:05.376Z,30.88
2023-09-08T23:30:36.335Z,19.15
2023-09-08T23:33:07.011Z,20.45
2023-09-08T23:35:37.834Z,19.63
2023-09-08T23:38:07.937Z,20.15
2023-09-08T23:40:40.322Z,17.58
2023-09-08T23:43:10.735Z,15.65
2023-09-08T23:45:46.602Z,19.17
2023-09-08T23:48:18.137Z,18.38
2023-09-08T23:50:53.870Z,19.52
2023-09-08T23:53:24.522Z,15.07
2023-09-08T23:55:55.197Z,14.05
2023-09-08T23:58:25.932Z,16.25
